Time;durP1;ratioP1;P1;durP2;ratioP2;P2;SDS_P1;SDS_P2;PMS_P1;PMS_P2;Temp;Humidity;BMP_temperature;BMP_pressure;BME280_temperature;BME280_humidity;BME280_pressure;Samples;Min_cycle;Max_cycle;Signal;HPM_P1;HPM_P2
2021/04/02 00:00:53;;;;;;;32.75;11.53;;;;;;;7.13;56.97;100263.29;1784945;80;20927;-42
2021/04/02 00:03:24;;;;;;;20.65;11.60;;;;;;;7.07;57.33;100265.05;1785031;80;21460;-41
2021/04/02 00:05:53;;;;;;;29.32;11.60;;;;;;;6.98;57.60;100255.69;1784953;80;20943;-41
2021/04/02 00:08:21;;;;;;;29.65;12.28;;;;;;;6.93;57.88;100250.98;1784919;79;21365;-42
2021/04/02 00:10:53;;;;;;;25.50;11.40;;;;;;;6.86;58.19;100252.31;1784920;80;21049;-42
2021/04/02 00:13:34;;;;;;;28.92;10.68;;;;;;;6.80;58.13;100252.36;1784946;80;21010;-43
2021/04/02 00:16:03;;;;;;;24.20;11.25;;;;;;;6.76;58.26;100249.39;1784904;80;21033;-42
2021/04/02 00:18:30;;;;;;;22.58;11.93;;;;;;;6.73;58.38;100244.27;1784956;80;20927;-43
2021/04/02 00:21:00;;;;;;;23.73;11.40;;;;;;;6.71;58.78;100243.42;1785010;80;21092;-42
2021/04/02 00:23:27;;;;;;;29.42;11.22;;;;;;;6.67;58.81;100245.56;1784958;80;21598;-42
2021/04/02 00:25:55;;;;;;;27.55;11.78;;;;;;;6.60;58.87;100244.77;1784869;80;20998;-42
2021/04/02 00:28:25;;;;;;;21.90;11.95;;;;;;;6.57;59.11;100249.48;1784924;80;21049;-42
2021/04/02 00:30:56;;;;;;;23.83;12.07;;;;;;;6.52;59.36;100239.66;1784973;80;21042;-42
2021/04/02 00:33:27;;;;;;;18.85;11.30;;;;;;;6.46;59.30;100228.13;1785008;80;22277;-40
2021/04/02 00:35:55;;;;;;;42.17;13.15;;;;;;;6.47;59.42;100238.39;1784755;79;21006;-41
2021/04/02 00:38:23;;;;;;;21.25;12.50;;;;;;;6.43;59.53;100228.98;1784915;80;20975;-41
2021/04/02 00:40:57;;;;;;;24.27;12.43;;;;;;;6.41;59.92;100234.98;1784876;80;20935;-41
2021/04/02 00:43:28;;;;;;;25.80;12.58;;;;;;;6.36;60.17;100232.88;1754498;80;21571;-41
2021/04/02 00:45:56;;;;;;;25.35;12.37;;;;;;;6.31;60.00;100227.32;1784891;80;21368;-42
2021/04/02 00:48:23;;;;;;;23.92;12.80;;;;;;;6.30;60.17;100230.76;1784850;80;21033;-41
2021/04/02 00:51:02;;;;;;;27.85;13.00;;;;;;;6.29;60.45;100225.61;1784885;79;20951;-42
2021/04/02 00:53:32;;;;;;;23.55;11.33;;;;;;;6.27;60.75;100218.34;1784872;79;20994;-43
2021/04/02 00:56:01;;;;;;;28.17;12.70;;;;;;;6.24;60.99;100216.66;1784887;80;21057;-41
2021/04/02 00:58:32;;;;;;;23.52;11.48;;;;;;;6.19;61.03;100209.40;1755111;79;21503;-43
2021/04/02 01:01:00;;;;;;;24.02;12.15;;;;;;;6.13;61.20;100205.55;1784816;80;20955;-42
2021/04/02 01:03:28;;;;;;;29.18;12.85;;;;;;;6.01;61.52;100200.89;1784907;80;21002;-45
2021/04/02 01:06:00;;;;;;;30.25;12.90;;;;;;;6.01;61.52;100200.89;1784872;80;21026;-41
2021/04/02 01:08:32;;;;;;;36.03;12.78;;;;;;;5.97;62.15;100200.45;1784995;80;21002;-41
2021/04/02 01:11:06;;;;;;;26.10;13.15;;;;;;;5.97;62.15;100200.45;1784870;80;21383;-42
2021/04/02 01:13:45;;;;;;;24.70;12.90;;;;;;;5.86;62.12;100194.06;1784826;80;20954;-42
2021/04/02 01:18:24;;;;;;;25.52;13.30;;;;;;;5.87;62.55;100199.63;1776958;79;22678;-42
2021/04/02 01:20:56;;;;;;;31.87;14.58;;;;;;;5.79;62.74;100197.48;1749661;82;21386;-42
2021/04/02 01:23:29;;;;;;;23.52;13.58;;;;;;;5.67;62.93;100189.38;1749510;82;22306;-42
2021/04/02 01:26:09;;;;;;;25.45;13.25;;;;;;;5.66;63.22;100188.12;1749377;82;20924;-41
2021/04/02 01:29:14;;;;;;;34.85;14.35;;;;;;;5.66;63.22;100188.12;1748840;82;20963;-41
2021/04/02 01:31:47;;;;;;;29.37;13.30;;;;;;;5.65;63.10;100185.96;1749415;81;21030;-46
2021/04/02 01:34:22;;;;;;;30.40;14.05;;;;;;;5.64;63.37;100180.41;1749405;81;20932;-41
2021/04/02 01:36:51;;;;;;;25.15;13.53;;;;;;;5.64;63.37;100180.41;1749583;82;22258;-41
2021/04/02 01:39:19;;;;;;;27.95;14.53;;;;;;;5.59;63.41;100179.16;1749316;81;20928;-42
2021/04/02 01:41:51;;;;;;;26.37;14.07;;;;;;;5.59;63.67;100185.57;1749386;81;20996;-42
2021/04/02 01:44:18;;;;;;;31.48;14.00;;;;;;;5.54;63.70;100176.16;1749458;81;21650;-42
2021/04/02 01:46:46;;;;;;;24.87;13.30;;;;;;;5.48;64.06;100177.02;1720310;82;20932;-42
2021/04/02 01:49:15;;;;;;;22.73;13.60;;;;;;;5.45;64.32;100175.74;1749426;82;21208;-41
2021/04/02 01:51:43;;;;;;;24.95;13.88;;;;;;;5.41;64.52;100172.31;1749432;80;21002;-41
2021/04/02 01:54:11;;;;;;;29.27;14.28;;;;;;;5.41;64.68;100170.19;1749457;82;21013;-42
2021/04/02 01:56:39;;;;;;;27.17;14.25;;;;;;;5.41;64.68;100170.19;1749352;82;21003;-41
2021/04/02 01:59:08;;;;;;;34.85;14.55;;;;;;;5.39;64.71;100165.05;1720430;82;21171;-43
2021/04/02 02:01:39;;;;;;;27.30;15.10;;;;;;;5.38;64.98;100169.75;1749491;81;22258;-41
2021/04/02 02:04:08;;;;;;;35.13;14.78;;;;;;;5.36;65.18;100165.05;1749339;82;21070;-42
2021/04/02 02:06:38;;;;;;;26.57;13.88;;;;;;;5.35;65.31;100163.34;1749327;82;21018;-42
2021/04/02 02:09:25;;;;;;;27.65;15.63;;;;;;;5.32;65.60;100158.22;1749386;82;20951;-45
2021/04/02 02:11:57;;;;;;;28.30;15.60;;;;;;;5.29;65.94;100159.52;1722332;82;20935;-43
2021/04/02 02:14:30;;;;;;;28.20;15.68;;;;;;;5.27;65.94;100162.52;1720020;82;22369;-42
2021/04/02 02:17:03;;;;;;;30.68;14.75;;;;;;;5.25;65.96;100154.80;1717719;82;21564;-42
2021/04/02 02:19:34;;;;;;;29.90;16.02;;;;;;;5.25;66.13;100147.10;1736141;82;21040;-42
2021/04/02 02:22:05;;;;;;;31.80;15.00;;;;;;;5.22;66.44;100143.70;1716076;82;21019;-41
2021/04/02 02:24:36;;;;;;;30.85;17.23;;;;;;;5.22;66.67;100143.70;1736208;82;21611;-42
2021/04/02 02:27:06;;;;;;;25.00;15.43;;;;;;;5.21;66.64;100133.02;1715406;82;21205;-42
2021/04/02 02:29:35;;;;;;;30.57;16.57;;;;;;;5.22;66.68;100129.14;1735519;82;20908;-40
2021/04/02 02:32:04;;;;;;;30.60;16.48;;;;;;;5.22;66.68;100129.14;1714995;82;21027;-42
2021/04/02 02:34:32;;;;;;;31.10;16.27;;;;;;;5.22;66.71;100129.14;1714821;82;21086;-44
2021/04/02 02:37:01;;;;;;;30.95;16.57;;;;;;;5.21;66.76;100131.28;1735650;81;21035;-42
2021/04/02 02:39:31;;;;;;;36.13;16.30;;;;;;;5.21;67.14;100121.47;1735454;82;21380;-41
2021/04/02 02:42:05;;;;;;;35.20;17.10;;;;;;;5.22;67.26;100119.33;1735574;82;20932;-41
2021/04/02 02:44:33;;;;;;;33.13;16.55;;;;;;;5.22;67.08;100116.77;1735636;82;21568;-42
2021/04/02 02:47:05;;;;;;;26.95;16.67;;;;;;;5.23;67.21;100115.91;1735537;82;21505;-41
2021/04/02 02:49:34;;;;;;;36.05;16.50;;;;;;;5.24;67.31;100113.76;1735679;82;21043;-42
2021/04/02 02:52:03;;;;;;;34.38;18.15;;;;;;;5.25;67.51;100116.75;1735680;82;22293;-42
2021/04/02 02:54:32;;;;;;;32.88;17.87;;;;;;;5.25;67.44;100113.73;1735553;82;21115;-42
2021/04/02 02:57:00;;;;;;;36.15;18.02;;;;;;;5.26;67.49;100109.03;1715006;82;21008;-41
2021/04/02 02:59:29;;;;;;;35.60;17.35;;;;;;;5.25;67.62;100107.33;1735613;82;21016;-42
2021/04/02 03:01:58;;;;;;;83.95;18.77;;;;;;;5.24;67.79;100103.49;1735647;82;20992;-42
2021/04/02 03:04:26;;;;;;;42.20;17.52;;;;;;;5.18;67.93;100101.78;1735557;82;21369;-42
2021/04/02 03:06:55;;;;;;;58.83;19.87;;;;;;;5.15;68.03;100102.63;1714717;82;21071;-42
2021/04/02 03:09:23;;;;;;;53.02;17.45;;;;;;;5.14;68.21;100097.52;1735567;82;20979;-42
2021/04/02 03:11:52;;;;;;;33.45;16.73;;;;;;;5.15;68.39;100092.37;1735558;82;20948;-42
2021/04/02 03:14:21;;;;;;;36.63;18.95;;;;;;;5.12;68.39;100095.39;1735618;82;21043;-41
2021/04/02 03:16:52;;;;;;;35.58;18.62;;;;;;;5.08;68.62;100098.82;1735474;81;21300;-43
2021/04/02 03:19:23;;;;;;;46.50;18.07;;;;;;;5.05;68.87;100091.97;1735511;82;21051;-42
2021/04/02 03:21:54;;;;;;;43.68;18.37;;;;;;;5.02;69.18;100083.84;1735610;82;21090;-42
2021/04/02 03:24:24;;;;;;;32.17;18.05;;;;;;;4.99;69.22;100083.01;1714783;82;21074;-42
2021/04/02 03:26:54;;;;;;;40.73;19.17;;;;;;;4.95;69.39;100083.43;1735580;81;20936;-42
2021/04/02 03:29:23;;;;;;;35.45;18.00;;;;;;;4.91;69.58;100080.86;1714758;82;21454;-43
2021/04/02 03:31:56;;;;;;;35.65;18.52;;;;;;;4.84;69.80;100078.75;1735473;82;21039;-42
2021/04/02 03:34:23;;;;;;;32.03;18.50;;;;;;;4.78;69.86;100074.47;1714662;82;21039;-43
2021/04/02 03:36:54;;;;;;;62.88;18.70;;;;;;;4.71;70.00;100068.92;1735549;82;21027;-43
2021/04/02 03:39:26;;;;;;;38.20;18.32;;;;;;;4.64;70.19;100071.91;1715459;82;21028;-41
2021/04/02 03:41:57;;;;;;;57.08;21.52;;;;;;;4.54;70.52;100067.21;1735540;82;21374;-43
2021/04/02 03:44:31;;;;;;;51.42;19.73;;;;;;;4.48;70.88;100067.22;1715278;81;21482;-42
2021/04/02 03:47:03;;;;;;;50.28;19.62;;;;;;;4.43;71.36;100069.77;1714908;82;20932;-42
2021/04/02 03:49:34;;;;;;;28.40;16.75;;;;;;;4.43;71.69;100070.20;1735520;82;21047;-42
2021/04/02 03:52:06;;;;;;;32.08;19.10;;;;;;;4.43;71.89;100068.48;1735585;82;21078;-42
2021/04/02 03:54:35;;;;;;;37.38;19.45;;;;;;;4.46;72.03;100068.92;1735664;82;21567;-42
2021/04/02 03:57:04;;;;;;;45.48;18.42;;;;;;;4.51;72.06;100074.03;1735526;82;21631;-43
2021/04/02 03:59:34;;;;;;;39.90;20.30;;;;;;;4.56;72.07;100069.34;1714946;82;21004;-42
2021/04/02 04:02:02;;;;;;;39.80;20.50;;;;;;;4.63;72.06;100070.20;1714785;82;21019;-42
2021/04/02 04:04:31;;;;;;;38.58;19.98;;;;;;;4.75;71.95;100079.61;1735575;82;21031;-41
2021/04/02 04:07:04;;;;;;;29.60;18.17;;;;;;;4.88;71.79;100072.76;1735075;82;21440;-42
2021/04/02 04:09:35;;;;;;;32.10;20.20;;;;;;;4.99;71.47;100067.61;1735453;81;21027;-42
2021/04/02 04:12:06;;;;;;;38.85;21.50;;;;;;;5.10;71.19;100071.45;1734914;82;21071;-41
2021/04/02 04:14:36;;;;;;;43.02;20.17;;;;;;;5.19;70.76;100067.56;1692021;82;21015;-41
2021/04/02 04:17:07;;;;;;;36.88;20.10;;;;;;;5.29;70.64;100067.11;1714568;82;20960;-40
2021/04/02 04:19:35;;;;;;;38.53;19.85;;;;;;;5.37;70.40;100066.66;1735553;82;21152;-42
2021/04/02 04:22:06;;;;;;;32.35;20.27;;;;;;;5.46;69.96;100066.64;1735220;82;21019;-42
2021/04/02 04:24:35;;;;;;;36.38;19.95;;;;;;;5.56;69.83;100062.74;1735734;82;21583;-42
2021/04/02 04:27:06;;;;;;;37.80;21.95;;;;;;;5.66;69.45;100058.42;1735539;82;21023;-42
2021/04/02 04:29:46;;;;;;;33.75;21.02;;;;;;;5.75;69.04;100060.52;1735584;82;21035;-41
2021/04/02 04:32:17;;;;;;;39.73;20.65;;;;;;;5.75;69.04;100060.52;1735547;82;21428;-42
2021/04/02 04:34:45;;;;;;;31.95;19.25;;;;;;;5.83;68.76;100060.49;1735475;82;21528;-43
2021/04/02 04:37:13;;;;;;;43.68;20.12;;;;;;;5.91;68.71;100050.15;1735554;82;21019;-42
2021/04/02 04:39:44;;;;;;;34.13;19.25;;;;;;;5.98;68.64;100043.27;1735521;82;20968;-42
2021/04/02 04:42:12;;;;;;;34.05;20.00;;;;;;;6.04;68.09;100046.69;1735626;82;20980;-41
2021/04/02 04:44:41;;;;;;;37.85;20.68;;;;;;;6.16;67.92;100042.31;1735606;82;21203;-41
2021/04/02 04:47:09;;;;;;;29.75;19.20;;;;;;;6.26;67.67;100046.97;1714808;82;21015;-42
2021/04/02 04:49:36;;;;;;;32.13;18.92;;;;;;;6.38;67.63;100044.73;1735547;82;21007;-42
2021/04/02 04:52:06;;;;;;;38.50;20.52;;;;;;;6.46;66.88;100040.41;1735501;82;21043;-43
2021/04/02 04:54:33;;;;;;;40.67;20.52;;;;;;;6.59;66.61;100038.14;1735589;82;20996;-43
2021/04/02 04:57:02;;;;;;;40.83;20.37;;;;;;;6.70;65.96;100035.92;1714708;82;21455;-42
2021/04/02 04:59:30;;;;;;;31.33;20.97;;;;;;;6.81;65.96;100037.08;1714830;82;21075;-42
2021/04/02 05:01:58;;;;;;;38.02;19.27;;;;;;;6.89;65.48;100035.31;1735510;82;21040;-42
2021/04/02 05:04:26;;;;;;;49.25;20.43;;;;;;;6.99;65.32;100037.36;1714753;82;20956;-41
2021/04/02 05:06:58;;;;;;;41.08;20.40;;;;;;;7.08;64.95;100036.42;1735536;82;21472;-42
2021/04/02 05:09:26;;;;;;;38.10;20.52;;;;;;;7.13;64.41;100035.47;1735570;82;21187;-42
2021/04/02 05:11:54;;;;;;;37.17;21.07;;;;;;;7.19;64.38;100026.39;1735487;82;21043;-41
2021/04/02 05:14:22;;;;;;;37.33;20.85;;;;;;;7.26;64.06;100031.04;1735561;81;21122;-41
2021/04/02 05:16:50;;;;;;;35.10;20.55;;;;;;;7.35;63.95;100024.94;1735472;82;21079;-41
2021/04/02 05:19:19;;;;;;;35.20;20.90;;;;;;;7.46;63.84;100028.25;1743523;81;21019;-41
2021/04/02 05:21:46;;;;;;;38.90;21.15;;;;;;;7.55;63.47;100029.83;1743797;82;22225;-41
2021/04/02 05:24:14;;;;;;;36.45;20.15;;;;;;;7.66;63.16;100029.69;1743615;82;20967;-41
2021/04/02 05:26:42;;;;;;;36.05;19.52;;;;;;;7.76;62.73;100026.14;1743668;82;21027;-41
2021/04/02 05:29:09;;;;;;;37.10;20.15;;;;;;;7.88;62.39;100022.96;1743633;82;20990;-41
2021/04/02 05:31:37;;;;;;;37.55;19.85;;;;;;;8.01;62.14;100018.48;1714858;82;21635;-41
2021/04/02 05:34:06;;;;;;;31.30;18.45;;;;;;;8.09;62.21;100011.50;1742030;82;21374;-42
2021/04/02 05:36:34;;;;;;;34.38;18.55;;;;;;;8.25;61.92;100017.27;1743589;82;21026;-42
2021/04/02 05:39:02;;;;;;;31.42;18.17;;;;;;;8.41;60.37;100011.84;1743637;82;20987;-42
2021/04/02 05:41:48;;;;;;;27.58;17.27;;;;;;;8.55;60.25;100012.94;1743575;82;21059;-42
2021/04/02 05:44:27;;;;;;;36.35;17.77;;;;;;;8.70;59.83;100010.10;1717969;82;20896;-41
2021/04/02 05:46:54;;;;;;;34.78;17.17;;;;;;;8.94;59.02;99999.34;1743469;82;21137;-42
2021/04/02 05:49:22;;;;;;;45.65;16.37;;;;;;;9.14;58.23;99998.98;1743537;82;21015;-42
2021/04/02 05:51:50;;;;;;;33.23;16.95;;;;;;;9.29;57.83;99997.81;1714762;82;20972;-42
2021/04/02 05:54:23;;;;;;;35.95;15.98;;;;;;;9.44;57.13;99993.61;1714684;82;21039;-42
2021/04/02 05:56:53;;;;;;;22.73;15.27;;;;;;;9.64;56.73;99996.21;1743810;82;20975;-42
2021/04/02 05:59:21;;;;;;;31.70;15.35;;;;;;;9.84;56.03;99991.05;1743605;80;21368;-42
2021/04/02 06:01:49;;;;;;;29.63;14.23;;;;;;;10.01;55.66;99986.77;1743562;82;20959;-42
2021/04/02 06:04:17;;;;;;;89.90;16.93;;;;;;;10.20;54.76;99984.59;1743750;82;20979;-43
2021/04/02 06:06:46;;;;;;;35.15;15.43;;;;;;;10.42;53.52;99986.25;1743782;81;21591;-40
2021/04/02 06:09:14;;;;;;;61.25;15.45;;;;;;;10.59;52.92;99989.70;1743798;82;21007;-43
2021/04/02 06:11:41;;;;;;;32.05;14.40;;;;;;;10.71;52.82;99983.78;1743792;82;21207;-42
2021/04/02 06:14:09;;;;;;;31.20;13.45;;;;;;;10.72;52.41;99973.83;1743763;82;21027;-42
2021/04/02 06:16:37;;;;;;;22.27;14.00;;;;;;;10.85;52.17;99969.16;1743829;82;20960;-42
2021/04/02 06:19:07;;;;;;;27.00;13.30;;;;;;;10.90;52.19;99960.39;1737425;81;21028;-41
2021/04/02 06:21:48;;;;;;;31.05;14.07;;;;;;;11.03;51.61;99958.30;1735657;82;20991;-41
2021/04/02 06:24:43;;;;;;;25.95;14.15;;;;;;;11.31;51.93;99963.98;1889868;75;23230;-41
2021/04/02 06:27:14;;;;;;;34.78;14.18;;;;;;;11.52;50.55;99953.05;1860648;77;20938;-41
2021/04/02 06:29:44;;;;;;;65.55;14.40;;;;;;;11.50;51.16;99955.67;1823054;78;21468;-42
2021/04/02 06:32:14;;;;;;;39.92;13.53;;;;;;;11.62;51.35;99953.16;1823105;78;21487;-43
2021/04/02 06:34:48;;;;;;;44.30;12.70;;;;;;;11.76;51.04;99957.48;1823133;78;21565;-40
2021/04/02 06:37:19;;;;;;;30.40;12.37;;;;;;;11.90;50.85;99963.95;1822534;78;21086;-42
2021/04/02 06:39:51;;;;;;;43.95;16.40;;;;;;;12.01;50.18;99955.43;1823004;78;20940;-41
2021/04/02 06:42:31;;;;;;;30.70;14.45;;;;;;;12.07;50.51;99959.11;1822893;78;21192;-41
2021/04/02 06:45:08;;;;;;;43.40;12.98;;;;;;;12.25;50.19;99950.34;1822843;78;21019;-42
2021/04/02 06:47:37;;;;;;;43.30;14.15;;;;;;;12.44;49.07;99947.95;1822920;78;21031;-42
2021/04/02 06:50:15;;;;;;;23.73;12.28;;;;;;;12.45;48.33;99944.89;1822889;78;20885;-42
2021/04/02 06:52:51;;;;;;;27.20;11.55;;;;;;;12.42;48.63;99949.77;1820269;78;21545;-41
2021/04/02 06:55:19;;;;;;;25.80;12.05;;;;;;;12.41;48.65;99942.02;1823152;78;23318;-41
2021/04/02 06:57:55;;;;;;;23.42;11.43;;;;;;;12.38;48.43;99957.27;1822855;78;20992;-42
2021/04/02 07:00:24;;;;;;;17.57;11.43;;;;;;;12.40;48.34;99954.59;1817241;78;21046;-42
2021/04/02 07:02:52;;;;;;;28.10;11.95;;;;;;;12.49;48.07;99952.97;1816407;79;20912;-41
2021/04/02 07:05:25;;;;;;;30.30;11.55;;;;;;;12.59;48.78;99953.06;1816487;79;20935;-42
2021/04/02 07:08:07;;;;;;;40.55;10.90;;;;;;;12.77;47.18;99945.54;1784380;80;21260;-43
2021/04/02 07:10:37;;;;;;;35.52;10.28;;;;;;;12.78;47.57;99944.17;1787990;80;21473;-44
2021/04/02 07:13:07;;;;;;;56.25;11.20;;;;;;;12.92;46.71;99944.97;1784357;80;20991;-42
2021/04/02 07:15:37;;;;;;;19.82;9.30;;;;;;;12.94;45.81;99943.62;1757881;80;21004;-42
2021/04/02 07:18:10;;;;;;;34.38;9.78;;;;;;;12.90;45.37;99949.84;1784500;80;21077;-43
2021/04/02 07:20:37;;;;;;;23.85;9.43;;;;;;;12.83;45.18;99937.95;1788126;80;21431;-42
2021/04/02 07:23:04;;;;;;;26.60;8.90;;;;;;;12.71;46.43;99948.33;1784208;80;21061;-43
2021/04/02 07:25:32;;;;;;;74.15;11.95;;;;;;;12.77;46.05;99946.84;1788018;80;21046;-42
2021/04/02 07:28:00;;;;;;;39.60;9.48;;;;;;;12.81;46.00;99944.52;1784364;80;21085;-43
2021/04/02 07:30:30;;;;;;;38.23;9.88;;;;;;;12.79;45.68;99945.86;1788050;80;21061;-43
2021/04/02 07:33:04;;;;;;;32.48;10.20;;;;;;;12.74;45.64;99940.43;1784370;80;21197;-41
2021/04/02 07:35:31;;;;;;;27.05;9.40;;;;;;;12.67;45.58;99942.42;1787438;80;20963;-42
2021/04/02 07:38:00;;;;;;;46.90;11.18;;;;;;;12.64;46.81;99947.26;1783830;80;21006;-42
2021/04/02 07:40:31;;;;;;;18.23;10.65;;;;;;;12.75;46.76;99947.31;1815966;79;21045;-43
2021/04/02 07:43:01;;;;;;;34.10;11.05;;;;;;;12.85;46.12;99954.33;1783824;80;21495;-41
2021/04/02 07:45:32;;;;;;;33.20;10.88;;;;;;;12.75;46.91;99935.62;1783951;80;21206;-42
2021/04/02 07:48:23;;;;;;;39.40;13.18;;;;;;;12.76;47.45;99937.36;1783826;80;20994;-42
2021/04/02 07:50:56;;;;;;;24.00;10.48;;;;;;;12.83;47.12;99938.82;1779747;80;21022;-41
2021/04/02 07:53:29;;;;;;;27.35;10.80;;;;;;;12.89;47.53;99931.27;1783769;80;20999;-43
2021/04/02 07:56:17;;;;;;;21.30;10.35;;;;;;;12.97;47.20;99923.16;1783813;80;21144;-42
2021/04/02 07:58:53;;;;;;;20.40;9.50;;;;;;;12.99;47.11;99917.02;1783760;80;22321;-43
2021/04/02 08:01:22;;;;;;;38.00;9.65;;;;;;;13.02;46.96;99912.18;1783848;80;20951;-42
2021/04/02 08:03:52;;;;;;;61.18;11.10;;;;;;;13.11;45.94;99922.22;1783787;80;21189;-42
2021/04/02 08:06:38;;;;;;;152.35;11.57;;;;;;;13.15;45.67;99912.09;1787384;80;20955;-43
2021/04/02 08:09:08;;;;;;;29.18;8.05;;;;;;;13.10;43.39;99907.97;1783939;80;20971;-42
2021/04/02 08:11:46;;;;;;;19.42;6.92;;;;;;;13.02;42.20;99905.69;1787440;80;21281;-43
2021/04/02 08:14:14;;;;;;;;;;;;;;;12.94;42.47;99905.97;1786390;80;20967;-43
2021/04/02 08:16:46;;;;;;;15.18;6.60;;;;;;;12.90;42.61;99909.11;1787390;80;20131;-43
2021/04/02 08:19:21;;;;;;;16.80;7.37;;;;;;;12.83;43.35;99902.89;1783786;80;20916;-41
2021/04/02 08:21:59;;;;;;;27.22;8.20;;;;;;;12.85;44.54;99904.98;1787522;80;20900;-43
2021/04/02 08:24:40;;;;;;;24.67;8.35;;;;;;;12.88;45.30;99908.77;1762002;80;21627;-43
2021/04/02 08:27:08;;;;;;;20.57;8.38;;;;;;;12.97;45.56;99903.25;1765381;81;21654;-42
2021/04/02 08:29:37;;;;;;;21.85;7.87;;;;;;;13.11;45.16;99906.62;1786811;80;20943;-40
2021/04/02 08:32:09;;;;;;;59.25;9.43;;;;;;;13.17;45.08;99901.19;1786917;80;21535;-42
2021/04/02 08:34:37;;;;;;;47.13;9.25;;;;;;;13.25;44.06;99902.64;1754114;81;21030;-42
2021/04/02 08:37:11;;;;;;;143.45;11.73;;;;;;;13.24;44.31;99896.61;1754110;81;21205;-42
2021/04/02 08:39:39;;;;;;;59.42;7.97;;;;;;;13.15;43.18;99896.50;1765355;81;21053;-43
2021/04/02 08:42:09;;;;;;;45.45;8.55;;;;;;;13.05;42.96;99898.60;1786831;80;21006;-42
2021/04/02 08:44:44;;;;;;;67.32;7.35;;;;;;;13.04;42.43;99902.58;1765368;81;21038;-42
2021/04/02 08:47:15;;;;;;;17.85;6.85;;;;;;;12.99;42.55;99899.27;1826097;78;21030;-43
2021/04/02 08:49:54;;;;;;;12.73;7.75;;;;;;;13.05;42.24;99895.17;1826011;78;21399;-42
2021/04/02 08:52:24;;;;;;;14.98;7.60;;;;;;;13.09;42.62;99888.95;1798174;78;21049;-43
2021/04/02 08:54:57;;;;;;;15.72;7.70;;;;;;;13.17;43.12;99891.27;1826041;78;21505;-43
2021/04/02 08:57:29;;;;;;;26.07;7.78;;;;;;;13.34;43.31;99894.50;1825973;78;20950;-42
2021/04/02 08:59:59;;;;;;;36.75;8.40;;;;;;;13.60;43.55;99897.86;1826051;78;22409;-43
2021/04/02 09:02:31;;;;;;;17.00;7.15;;;;;;;13.85;42.88;99892.97;1798958;78;21073;-42
2021/04/02 09:05:05;;;;;;;14.53;6.83;;;;;;;14.03;41.27;99883.11;1825935;78;21027;-43
2021/04/02 09:07:40;;;;;;;24.50;7.25;;;;;;;14.06;39.86;99888.19;1826201;78;21092;-43
2021/04/02 09:10:16;;;;;;;27.58;7.03;;;;;;;14.05;40.86;99879.98;1825970;78;21010;-42
2021/04/02 09:12:49;;;;;;;26.33;7.42;;;;;;;14.20;40.82;99881.09;1826249;78;21021;-42
2021/04/02 09:15:21;;;;;;;16.30;6.95;;;;;;;14.39;41.34;99880.27;1826055;78;21002;-43
2021/04/02 09:17:49;;;;;;;33.95;7.25;;;;;;;14.59;41.05;99869.45;1826002;78;21551;-42
2021/04/02 09:20:17;;;;;;;58.33;8.25;;;;;;;14.74;40.17;99869.24;1825968;78;21610;-41
2021/04/02 09:22:45;;;;;;;18.25;6.35;;;;;;;14.73;39.98;99867.11;1825947;78;20927;-42
2021/04/02 09:25:18;;;;;;;43.83;8.90;;;;;;;14.76;40.73;99863.50;1847816;77;21536;-42
2021/04/02 09:27:46;;;;;;;37.50;7.60;;;;;;;14.74;39.66;99862.73;1822900;77;21365;-42
2021/04/02 09:30:25;;;;;;;46.48;8.83;;;;;;;14.66;40.52;99860.47;1768898;81;21086;-41
2021/04/02 09:32:53;;;;;;;33.42;8.70;;;;;;;14.74;40.41;99847.10;1799136;79;21628;-42
2021/04/02 09:35:21;;;;;;;20.02;7.85;;;;;;;14.76;39.93;99859.16;1768981;81;22131;-43
2021/04/02 09:37:49;;;;;;;15.98;8.10;;;;;;;14.61;40.17;99846.34;1800463;79;21054;-43
2021/04/02 09:40:17;;;;;;;44.88;8.53;;;;;;;14.49;40.57;99850.77;1800297;79;21394;-42
2021/04/02 09:42:48;;;;;;;53.50;8.98;;;;;;;14.54;41.04;99851.44;1768879;81;21537;-42
2021/04/02 09:45:17;;;;;;;31.80;8.48;;;;;;;14.59;40.37;99846.86;1800523;79;21038;-42
2021/04/02 09:47:48;;;;;;;42.58;8.78;;;;;;;14.55;40.93;99841.85;1800269;79;21677;-42
2021/04/02 09:50:17;;;;;;;43.42;8.98;;;;;;;14.50;40.29;99832.94;1768947;81;20947;-43
2021/04/02 09:52:46;;;;;;;44.27;8.80;;;;;;;14.54;40.29;99826.70;1800301;79;21488;-43
2021/04/02 09:55:20;;;;;;;105.65;11.08;;;;;;;14.54;40.67;99822.80;1768800;81;20970;-44
2021/04/02 09:57:49;;;;;;;41.37;8.83;;;;;;;14.59;40.51;99815.61;1800629;79;21094;-43
2021/04/02 10:00:19;;;;;;;36.15;8.20;;;;;;;14.51;41.42;99825.07;1800110;79;20978;-41
2021/04/02 10:02:46;;;;;;;35.23;7.62;;;;;;;14.51;41.06;99821.16;1768970;80;21003;-42
2021/04/02 10:05:15;;;;;;;71.65;9.80;;;;;;;14.50;40.74;99825.98;1800144;79;21205;-42
2021/04/02 10:07:43;;;;;;;22.22;7.40;;;;;;;14.57;41.58;99816.58;1768829;81;20959;-41
2021/04/02 10:10:13;;;;;;;80.75;9.50;;;;;;;14.78;41.60;99809.13;1800188;79;21002;-43
2021/04/02 10:12:41;;;;;;;25.77;7.67;;;;;;;15.17;39.44;99817.75;1768976;81;21109;-42
2021/04/02 10:15:10;;;;;;;21.07;7.85;;;;;;;15.27;39.75;99810.78;1800541;79;21034;-42
2021/04/02 10:17:38;;;;;;;22.65;7.05;;;;;;;15.50;40.21;99809.20;1800183;79;21205;-43
2021/04/02 10:20:08;;;;;;;82.00;9.25;;;;;;;15.98;39.22;99814.30;1800433;79;21018;-42
2021/04/02 10:22:35;;;;;;;66.15;9.65;;;;;;;16.13;38.54;99806.14;1800251;79;21029;-43
2021/04/02 10:25:04;;;;;;;85.20;9.88;;;;;;;16.08;37.91;99795.93;1814718;78;20999;-42
2021/04/02 10:27:32;;;;;;;48.75;9.63;;;;;;;16.07;38.59;99815.98;1787357;80;21022;-42
2021/04/02 10:30:00;;;;;;;19.37;8.20;;;;;;;16.09;38.33;99790.64;1787258;80;21341;-42
2021/04/02 10:32:29;;;;;;;17.67;7.65;;;;;;;15.93;38.38;99798.42;1787212;80;21018;-43
2021/04/02 10:34:56;;;;;;;85.70;9.38;;;;;;;15.78;40.10;99801.30;1787395;80;20982;-42
2021/04/02 10:37:25;;;;;;;56.50;8.10;;;;;;;15.90;39.84;99793.81;1787236;80;21010;-42
2021/04/02 10:39:54;;;;;;;42.23;9.15;;;;;;;16.18;38.95;99789.77;1787343;80;21026;-42
2021/04/02 10:42:22;;;;;;;68.12;10.80;;;;;;;16.18;38.76;99786.71;1819521;78;21439;-43
2021/04/02 10:44:49;;;;;;;38.58;8.98;;;;;;;16.19;39.34;99782.31;1787187;80;21062;-43
2021/04/02 10:47:17;;;;;;;19.45;9.05;;;;;;;16.20;38.46;99778.78;1806150;79;20958;-41
2021/04/02 10:49:45;;;;;;;60.15;9.38;;;;;;;16.07;39.21;99772.91;1787302;80;20963;-42
2021/04/02 10:52:13;;;;;;;37.88;8.70;;;;;;;15.94;40.09;99774.45;1806127;79;21073;-41
2021/04/02 10:54:41;;;;;;;91.37;11.45;;;;;;;16.07;39.81;99775.97;1787273;80;21422;-43
2021/04/02 10:57:09;;;;;;;91.70;12.03;;;;;;;15.95;40.55;99777.45;1819479;78;21030;-43
2021/04/02 10:59:36;;;;;;;63.45;11.30;;;;;;;15.59;41.30;99772.69;1787281;80;20982;-43
2021/04/02 11:02:05;;;;;;;32.17;9.98;;;;;;;15.45;41.87;99772.55;1787353;80;21054;-42
2021/04/02 11:04:33;;;;;;;38.23;9.85;;;;;;;15.25;42.08;99753.96;1806136;79;20938;-42
2021/04/02 11:07:00;;;;;;;20.15;10.05;;;;;;;15.17;42.32;99760.40;1819494;78;21202;-42
2021/04/02 11:09:29;;;;;;;20.02;10.45;;;;;;;15.22;42.42;99761.02;1787327;80;21014;-43
2021/04/02 11:11:57;;;;;;;25.43;10.75;;;;;;;15.36;41.62;99755.12;1787393;80;21141;-44
2021/04/02 11:14:25;;;;;;;62.80;12.37;;;;;;;15.51;41.89;99750.90;1787394;80;21061;-43
2021/04/02 11:16:52;;;;;;;93.37;13.40;;;;;;;15.71;42.09;99746.44;1787436;80;20962;-42
2021/04/02 11:19:20;;;;;;;22.62;10.85;;;;;;;15.92;41.52;99743.24;1787450;80;21250;-44
2021/04/02 11:21:48;;;;;;;48.73;10.88;;;;;;;15.87;41.71;99744.36;1787353;80;21014;-42
2021/04/02 11:24:15;;;;;;;26.23;10.53;;;;;;;15.85;42.14;99740.99;1786312;80;21046;-42
2021/04/02 11:26:43;;;;;;;22.25;11.40;;;;;;;15.85;42.01;99736.59;1783744;80;20946;-42
2021/04/02 11:29:11;;;;;;;29.20;10.95;;;;;;;15.76;42.27;99731.39;1783823;80;21003;-43
2021/04/02 11:31:40;;;;;;;33.05;11.28;;;;;;;15.82;42.93;99728.11;1783696;80;21111;-43
2021/04/02 11:34:08;;;;;;;25.72;11.00;;;;;;;15.95;42.67;99730.47;1783852;80;21070;-43
2021/04/02 11:36:36;;;;;;;37.35;10.58;;;;;;;16.02;41.82;99719.26;1783809;80;21050;-43